sensor_id;sensor_type;location;lat;lon;timestamp;P1;durP1;ratioP1;P2;durP2;ratioP2
33864;SDS011;20159;51.072;13.526;2023-02-17T00:01:58;16.02;;;12.38;;
33864;SDS011;20159;51.072;13.526;2023-02-17T00:04:24;17.08;;;13.50;;
33864;SDS011;20159;51.072;13.526;2023-02-17T00:06:52;14.55;;;12.95;;
33864;SDS011;20159;51.072;13.526;2023-02-17T00:09:17;14.93;;;12.70;;
33864;SDS011;20159;51.072;13.526;2023-02-17T00:11:43;16.23;;;13.25;;
33864;SDS011;20159;51.072;13.526;2023-02-17T00:14:10;14.70;;;13.13;;
33864;SDS011;20159;51.072;13.526;2023-02-17T00:16:36;15.10;;;13.05;;
33864;SDS011;20159;51.072;13.526;2023-02-17T00:19:02;15.98;;;13.30;;
33864;SDS011;20159;51.072;13.526;2023-02-17T00:21:47;14.82;;;13.13;;
33864;SDS011;20159;51.072;13.526;2023-02-17T00:24:13;17.15;;;14.30;;
33864;SDS011;20159;51.072;13.526;2023-02-17T00:26:38;19.05;;;13.80;;
33864;SDS011;20159;51.072;13.526;2023-02-17T00:29:04;17.80;;;13.48;;
33864;SDS011;20159;51.072;13.526;2023-02-17T00:31:29;15.07;;;13.15;;
33864;SDS011;20159;51.072;13.526;2023-02-17T00:33:55;14.93;;;13.32;;
33864;SDS011;20159;51.072;13.526;2023-02-17T00:36:21;16.73;;;13.35;;
33864;SDS011;20159;51.072;13.526;2023-02-17T00:38:47;16.52;;;14.70;;
33864;SDS011;20159;51.072;13.526;2023-02-17T00:41:13;15.30;;;13.18;;
33864;SDS011;20159;51.072;13.526;2023-02-17T00:43:39;16.42;;;13.93;;
33864;SDS011;20159;51.072;13.526;2023-02-17T00:46:05;16.33;;;14.05;;
33864;SDS011;20159;51.072;13.526;2023-02-17T00:48:31;16.30;;;13.90;;
33864;SDS011;20159;51.072;13.526;2023-02-17T00:50:56;16.17;;;13.48;;
33864;SDS011;20159;51.072;13.526;2023-02-17T00:53:22;15.80;;;13.98;;
33864;SDS011;20159;51.072;13.526;2023-02-17T00:55:47;15.18;;;13.30;;
33864;SDS011;20159;51.072;13.526;2023-02-17T00:58:14;16.50;;;14.35;;
33864;SDS011;20159;51.072;13.526;2023-02-17T01:00:40;16.20;;;14.50;;
33864;SDS011;20159;51.072;13.526;2023-02-17T01:03:06;17.10;;;13.80;;
33864;SDS011;20159;51.072;13.526;2023-02-17T01:05:31;15.32;;;13.25;;
33864;SDS011;20159;51.072;13.526;2023-02-17T01:07:57;16.35;;;13.82;;
33864;SDS011;20159;51.072;13.526;2023-02-17T01:10:23;15.85;;;12.77;;
33864;SDS011;20159;51.072;13.526;2023-02-17T01:12:48;15.73;;;13.07;;
33864;SDS011;20159;51.072;13.526;2023-02-17T01:15:14;15.88;;;13.75;;
33864;SDS011;20159;51.072;13.526;2023-02-17T01:17:40;16.45;;;12.57;;
33864;SDS011;20159;51.072;13.526;2023-02-17T01:20:05;16.77;;;12.75;;
33864;SDS011;20159;51.072;13.526;2023-02-17T01:22:31;15.15;;;12.07;;
33864;SDS011;20159;51.072;13.526;2023-02-17T01:24:57;17.65;;;12.60;;
33864;SDS011;20159;51.072;13.526;2023-02-17T01:27:24;19.70;;;12.18;;
33864;SDS011;20159;51.072;13.526;2023-02-17T01:29:49;15.27;;;12.30;;
33864;SDS011;20159;51.072;13.526;2023-02-17T01:32:15;14.60;;;12.18;;
33864;SDS011;20159;51.072;13.526;2023-02-17T01:34:40;14.45;;;11.73;;
33864;SDS011;20159;51.072;13.526;2023-02-17T01:37:06;14.65;;;11.80;;
33864;SDS011;20159;51.072;13.526;2023-02-17T01:39:31;14.88;;;11.85;;
33864;SDS011;20159;51.072;13.526;2023-02-17T01:41:57;15.00;;;11.88;;
33864;SDS011;20159;51.072;13.526;2023-02-17T01:44:23;13.50;;;11.13;;
33864;SDS011;20159;51.072;13.526;2023-02-17T01:46:50;15.27;;;12.75;;
33864;SDS011;20159;51.072;13.526;2023-02-17T01:49:37;13.10;;;10.98;;
33864;SDS011;20159;51.072;13.526;2023-02-17T01:54:44;14.45;;;12.32;;
33864;SDS011;20159;51.072;13.526;2023-02-17T01:57:15;14.48;;;12.45;;
33864;SDS011;20159;51.072;13.526;2023-02-17T01:59:44;15.57;;;11.90;;
33864;SDS011;20159;51.072;13.526;2023-02-17T02:02:11;12.65;;;11.27;;
33864;SDS011;20159;51.072;13.526;2023-02-17T02:04:37;14.82;;;11.85;;
33864;SDS011;20159;51.072;13.526;2023-02-17T02:07:05;14.23;;;11.27;;
33864;SDS011;20159;51.072;13.526;2023-02-17T02:09:51;16.00;;;10.45;;
33864;SDS011;20159;51.072;13.526;2023-02-17T02:12:21;13.60;;;11.00;;
33864;SDS011;20159;51.072;13.526;2023-02-17T02:14:56;13.10;;;11.33;;
33864;SDS011;20159;51.072;13.526;2023-02-17T02:17:41;14.88;;;10.93;;
33864;SDS011;20159;51.072;13.526;2023-02-17T02:34:34;11.52;;;10.27;;
33864;SDS011;20159;51.072;13.526;2023-02-17T02:37:11;11.90;;;10.30;;
33864;SDS011;20159;51.072;13.526;2023-02-17T02:39:42;13.52;;;10.55;;
33864;SDS011;20159;51.072;13.526;2023-02-17T02:42:12;12.45;;;10.65;;
33864;SDS011;20159;51.072;13.526;2023-02-17T02:44:40;13.52;;;10.65;;
33864;SDS011;20159;51.072;13.526;2023-02-17T02:47:38;13.73;;;10.77;;
33864;SDS011;20159;51.072;13.526;2023-02-17T02:49:54;15.18;;;11.15;;
33864;SDS011;20159;51.072;13.526;2023-02-17T02:52:29;13.30;;;11.57;;
33864;SDS011;20159;51.072;13.526;2023-02-17T02:55:32;12.73;;;11.00;;
33864;SDS011;20159;51.072;13.526;2023-02-17T02:58:23;12.23;;;10.90;;
33864;SDS011;20159;51.072;13.526;2023-02-17T03:01:08;13.48;;;10.57;;
33864;SDS011;20159;51.072;13.526;2023-02-17T03:03:45;13.88;;;11.02;;
33864;SDS011;20159;51.072;13.526;2023-02-17T03:06:26;13.85;;;11.15;;
33864;SDS011;20159;51.072;13.526;2023-02-17T03:09:17;14.55;;;11.73;;
33864;SDS011;20159;51.072;13.526;2023-02-17T03:11:46;12.65;;;10.98;;
33864;SDS011;20159;51.072;13.526;2023-02-17T03:14:14;13.73;;;11.32;;
33864;SDS011;20159;51.072;13.526;2023-02-17T03:16:41;14.52;;;10.93;;
33864;SDS011;20159;51.072;13.526;2023-02-17T03:19:08;13.90;;;11.00;;
33864;SDS011;20159;51.072;13.526;2023-02-17T03:21:37;13.77;;;10.68;;
33864;SDS011;20159;51.072;13.526;2023-02-17T03:24:05;16.40;;;11.77;;
33864;SDS011;20159;51.072;13.526;2023-02-17T03:26:31;11.85;;;10.63;;
33864;SDS011;20159;51.072;13.526;2023-02-17T03:28:56;11.90;;;10.30;;
33864;SDS011;20159;51.072;13.526;2023-02-17T03:31:22;13.43;;;11.18;;
33864;SDS011;20159;51.072;13.526;2023-02-17T03:33:49;12.77;;;11.35;;
33864;SDS011;20159;51.072;13.526;2023-02-17T03:36:14;11.52;;;9.88;;
33864;SDS011;20159;51.072;13.526;2023-02-17T03:38:40;13.45;;;10.32;;
33864;SDS011;20159;51.072;13.526;2023-02-17T03:41:05;14.02;;;10.60;;
33864;SDS011;20159;51.072;13.526;2023-02-17T03:43:31;12.75;;;10.32;;
33864;SDS011;20159;51.072;13.526;2023-02-17T03:45:56;11.23;;;9.98;;
33864;SDS011;20159;51.072;13.526;2023-02-17T03:48:22;13.00;;;11.00;;
33864;SDS011;20159;51.072;13.526;2023-02-17T03:50:48;10.85;;;9.75;;
33864;SDS011;20159;51.072;13.526;2023-02-17T03:53:13;13.23;;;10.27;;
33864;SDS011;20159;51.072;13.526;2023-02-17T03:55:39;12.20;;;10.07;;
33864;SDS011;20159;51.072;13.526;2023-02-17T03:58:04;13.93;;;10.80;;
33864;SDS011;20159;51.072;13.526;2023-02-17T04:00:30;12.80;;;10.13;;
33864;SDS011;20159;51.072;13.526;2023-02-17T04:02:55;15.07;;;10.90;;
33864;SDS011;20159;51.072;13.526;2023-02-17T04:05:22;13.50;;;10.07;;
33864;SDS011;20159;51.072;13.526;2023-02-17T04:07:47;12.70;;;10.52;;
33864;SDS011;20159;51.072;13.526;2023-02-17T04:10:13;13.13;;;10.73;;
33864;SDS011;20159;51.072;13.526;2023-02-17T04:12:39;12.38;;;10.55;;
33864;SDS011;20159;51.072;13.526;2023-02-17T04:15:05;13.07;;;10.82;;
33864;SDS011;20159;51.072;13.526;2023-02-17T04:17:30;13.98;;;10.95;;
33864;SDS011;20159;51.072;13.526;2023-02-17T04:19:56;12.07;;;10.00;;
33864;SDS011;20159;51.072;13.526;2023-02-17T04:22:22;13.05;;;11.10;;
33864;SDS011;20159;51.072;13.526;2023-02-17T04:24:47;13.25;;;11.20;;
33864;SDS011;20159;51.072;13.526;2023-02-17T04:27:13;15.07;;;11.60;;
33864;SDS011;20159;51.072;13.526;2023-02-17T04:29:38;13.07;;;10.77;;
33864;SDS011;20159;51.072;13.526;2023-02-17T04:32:04;14.13;;;12.25;;
33864;SDS011;20159;51.072;13.526;2023-02-17T04:34:29;12.75;;;10.60;;
33864;SDS011;20159;51.072;13.526;2023-02-17T04:36:55;12.63;;;10.80;;
33864;SDS011;20159;51.072;13.526;2023-02-17T04:39:20;15.35;;;11.38;;
33864;SDS011;20159;51.072;13.526;2023-02-17T04:41:46;14.77;;;11.35;;
33864;SDS011;20159;51.072;13.526;2023-02-17T04:44:11;14.45;;;11.57;;
33864;SDS011;20159;51.072;13.526;2023-02-17T04:46:37;13.02;;;11.63;;
33864;SDS011;20159;51.072;13.526;2023-02-17T04:49:02;12.02;;;10.75;;
33864;SDS011;20159;51.072;13.526;2023-02-17T04:51:28;13.18;;;11.38;;
33864;SDS011;20159;51.072;13.526;2023-02-17T04:53:53;12.70;;;11.38;;
33864;SDS011;20159;51.072;13.526;2023-02-17T04:56:19;14.30;;;12.10;;
33864;SDS011;20159;51.072;13.526;2023-02-17T04:58:44;13.05;;;10.95;;
33864;SDS011;20159;51.072;13.526;2023-02-17T05:01:10;12.35;;;11.05;;
33864;SDS011;20159;51.072;13.526;2023-02-17T05:03:35;16.25;;;12.18;;
33864;SDS011;20159;51.072;13.526;2023-02-17T05:06:01;12.52;;;10.88;;
33864;SDS011;20159;51.072;13.526;2023-02-17T05:08:26;13.93;;;11.75;;
33864;SDS011;20159;51.072;13.526;2023-02-17T05:10:52;14.02;;;12.15;;
33864;SDS011;20159;51.072;13.526;2023-02-17T05:13:18;12.88;;;11.57;;
33864;SDS011;20159;51.072;13.526;2023-02-17T05:15:44;14.88;;;12.13;;
33864;SDS011;20159;51.072;13.526;2023-02-17T05:18:10;13.32;;;11.68;;
33864;SDS011;20159;51.072;13.526;2023-02-17T05:20:36;13.15;;;11.75;;
33864;SDS011;20159;51.072;13.526;2023-02-17T05:23:01;16.48;;;12.90;;
33864;SDS011;20159;51.072;13.526;2023-02-17T05:25:27;13.48;;;11.90;;
33864;SDS011;20159;51.072;13.526;2023-02-17T05:27:52;13.15;;;11.52;;
33864;SDS011;20159;51.072;13.526;2023-02-17T05:30:18;13.88;;;11.95;;
33864;SDS011;20159;51.072;13.526;2023-02-17T05:32:44;15.30;;;12.25;;
33864;SDS011;20159;51.072;13.526;2023-02-17T05:35:09;13.40;;;11.32;;
33864;SDS011;20159;51.072;13.526;2023-02-17T05:37:35;12.38;;;11.13;;
33864;SDS011;20159;51.072;13.526;2023-02-17T05:40:00;15.30;;;12.25;;
33864;SDS011;20159;51.072;13.526;2023-02-17T05:42:26;14.02;;;11.93;;
33864;SDS011;20159;51.072;13.526;2023-02-17T05:44:53;13.02;;;11.65;;
33864;SDS011;20159;51.072;13.526;2023-02-17T05:47:19;13.77;;;12.38;;
33864;SDS011;20159;51.072;13.526;2023-02-17T05:49:45;13.75;;;12.02;;
33864;SDS011;20159;51.072;13.526;2023-02-17T05:52:10;13.00;;;11.48;;
33864;SDS011;20159;51.072;13.526;2023-02-17T05:54:36;12.70;;;11.30;;
33864;SDS011;20159;51.072;13.526;2023-02-17T05:57:01;13.27;;;11.25;;
33864;SDS011;20159;51.072;13.526;2023-02-17T05:59:27;14.55;;;11.98;;
33864;SDS011;20159;51.072;13.526;2023-02-17T06:01:52;12.13;;;10.88;;
33864;SDS011;20159;51.072;13.526;2023-02-17T06:04:18;13.00;;;10.98;;
33864;SDS011;20159;51.072;13.526;2023-02-17T06:06:43;12.55;;;11.15;;
33864;SDS011;20159;51.072;13.526;2023-02-17T06:09:09;13.07;;;11.63;;
33864;SDS011;20159;51.072;13.526;2023-02-17T06:11:34;12.68;;;11.38;;
33864;SDS011;20159;51.072;13.526;2023-02-17T06:14:00;14.05;;;10.45;;
33864;SDS011;20159;51.072;13.526;2023-02-17T06:16:26;12.13;;;10.82;;
33864;SDS011;20159;51.072;13.526;2023-02-17T06:18:51;11.95;;;10.63;;
33864;SDS011;20159;51.072;13.526;2023-02-17T06:21:17;13.85;;;10.98;;
33864;SDS011;20159;51.072;13.526;2023-02-17T06:23:42;11.88;;;10.68;;
33864;SDS011;20159;51.072;13.526;2023-02-17T06:26:08;12.20;;;10.45;;
33864;SDS011;20159;51.072;13.526;2023-02-17T06:28:33;15.82;;;11.13;;
33864;SDS011;20159;51.072;13.526;2023-02-17T06:30:59;11.13;;;10.10;;
33864;SDS011;20159;51.072;13.526;2023-02-17T06:33:24;11.75;;;10.45;;
33864;SDS011;20159;51.072;13.526;2023-02-17T06:35:50;12.48;;;10.73;;
33864;SDS011;20159;51.072;13.526;2023-02-17T06:38:16;12.57;;;11.27;;
33864;SDS011;20159;51.072;13.526;2023-02-17T06:40:42;11.95;;;10.35;;
33864;SDS011;20159;51.072;13.526;2023-02-17T06:43:08;10.90;;;9.80;;
33864;SDS011;20159;51.072;13.526;2023-02-17T06:45:33;11.82;;;10.63;;
33864;SDS011;20159;51.072;13.526;2023-02-17T06:47:59;11.60;;;10.18;;
33864;SDS011;20159;51.072;13.526;2023-02-17T06:50:25;12.07;;;10.43;;
33864;SDS011;20159;51.072;13.526;2023-02-17T06:52:50;11.27;;;10.05;;
33864;SDS011;20159;51.072;13.526;2023-02-17T06:55:16;12.52;;;11.23;;
33864;SDS011;20159;51.072;13.526;2023-02-17T06:57:41;14.32;;;10.10;;
33864;SDS011;20159;51.072;13.526;2023-02-17T07:00:07;11.45;;;10.25;;
33864;SDS011;20159;51.072;13.526;2023-02-17T07:02:33;12.45;;;10.10;;
33864;SDS011;20159;51.072;13.526;2023-02-17T07:05:00;13.00;;;9.80;;
33864;SDS011;20159;51.072;13.526;2023-02-17T07:07:26;14.35;;;10.07;;
33864;SDS011;20159;51.072;13.526;2023-02-17T07:09:52;12.40;;;11.10;;
33864;SDS011;20159;51.072;13.526;2023-02-17T07:12:17;12.55;;;9.65;;
33864;SDS011;20159;51.072;13.526;2023-02-17T07:14:46;10.98;;;9.85;;
33864;SDS011;20159;51.072;13.526;2023-02-17T07:17:11;12.25;;;9.75;;
33864;SDS011;20159;51.072;13.526;2023-02-17T07:19:38;11.27;;;10.07;;
33864;SDS011;20159;51.072;13.526;2023-02-17T07:22:03;11.38;;;10.15;;
33864;SDS011;20159;51.072;13.526;2023-02-17T07:24:29;10.98;;;9.75;;
33864;SDS011;20159;51.072;13.526;2023-02-17T07:26:55;10.55;;;9.45;;
33864;SDS011;20159;51.072;13.526;2023-02-17T07:29:21;11.73;;;10.43;;
33864;SDS011;20159;51.072;13.526;2023-02-17T07:31:47;12.35;;;10.88;;
33864;SDS011;20159;51.072;13.526;2023-02-17T07:34:12;10.88;;;9.52;;
33864;SDS011;20159;51.072;13.526;2023-02-17T07:36:38;10.50;;;9.40;;
33864;SDS011;20159;51.072;13.526;2023-02-17T07:39:03;11.82;;;10.40;;
33864;SDS011;20159;51.072;13.526;2023-02-17T07:41:29;11.90;;;10.30;;
33864;SDS011;20159;51.072;13.526;2023-02-17T07:43:57;10.48;;;9.38;;
33864;SDS011;20159;51.072;13.526;2023-02-17T07:46:23;12.10;;;10.07;;
33864;SDS011;20159;51.072;13.526;2023-02-17T07:48:49;11.75;;;9.75;;
33864;SDS011;20159;51.072;13.526;2023-02-17T07:51:16;11.25;;;10.15;;
33864;SDS011;20159;51.072;13.526;2023-02-17T07:53:43;10.75;;;9.65;;
33864;SDS011;20159;51.072;13.526;2023-02-17T07:56:09;11.38;;;10.18;;
33864;SDS011;20159;51.072;13.526;2023-02-17T07:58:37;11.75;;;10.38;;
33864;SDS011;20159;51.072;13.526;2023-02-17T08:01:14;12.13;;;10.10;;
33864;SDS011;20159;51.072;13.526;2023-02-17T08:03:41;11.43;;;10.23;;
33864;SDS011;20159;51.072;13.526;2023-02-17T08:06:08;11.70;;;10.30;;
33864;SDS011;20159;51.072;13.526;2023-02-17T08:08:37;10.75;;;9.65;;
33864;SDS011;20159;51.072;13.526;2023-02-17T08:11:21;11.30;;;9.60;;
33864;SDS011;20159;51.072;13.526;2023-02-17T08:14:05;13.05;;;10.32;;
33864;SDS011;20159;51.072;13.526;2023-02-17T08:16:31;14.70;;;11.52;;
33864;SDS011;20159;51.072;13.526;2023-02-17T08:18:56;11.45;;;10.02;;
33864;SDS011;20159;51.072;13.526;2023-02-17T08:21:22;12.20;;;10.52;;
33864;SDS011;20159;51.072;13.526;2023-02-17T08:23:49;13.45;;;10.40;;
33864;SDS011;20159;51.072;13.526;2023-02-17T08:26:15;11.75;;;10.38;;
33864;SDS011;20159;51.072;13.526;2023-02-17T08:28:42;12.52;;;10.45;;
33864;SDS011;20159;51.072;13.526;2023-02-17T08:31:15;11.85;;;10.50;;
33864;SDS011;20159;51.072;13.526;2023-02-17T08:33:41;12.52;;;9.70;;
33864;SDS011;20159;51.072;13.526;2023-02-17T08:36:07;12.00;;;10.80;;
33864;SDS011;20159;51.072;13.526;2023-02-17T08:38:33;12.43;;;10.23;;
33864;SDS011;20159;51.072;13.526;2023-02-17T08:40:59;11.32;;;9.65;;
33864;SDS011;20159;51.072;13.526;2023-02-17T08:43:24;10.35;;;9.30;;
33864;SDS011;20159;51.072;13.526;2023-02-17T08:45:50;13.20;;;9.38;;
33864;SDS011;20159;51.072;13.526;2023-02-17T08:48:15;11.85;;;9.50;;
33864;SDS011;20159;51.072;13.526;2023-02-17T08:50:41;9.40;;;8.40;;
33864;SDS011;20159;51.072;13.526;2023-02-17T08:53:06;10.52;;;9.43;;
33864;SDS011;20159;51.072;13.526;2023-02-17T08:55:33;9.90;;;8.90;;
33864;SDS011;20159;51.072;13.526;2023-02-17T08:57:59;8.93;;;8.13;;
33864;SDS011;20159;51.072;13.526;2023-02-17T09:00:27;9.52;;;8.52;;
33864;SDS011;20159;51.072;13.526;2023-02-17T09:02:52;8.90;;;8.00;;
33864;SDS011;20159;51.072;13.526;2023-02-17T09:05:18;8.57;;;7.68;;
33864;SDS011;20159;51.072;13.526;2023-02-17T09:07:43;8.70;;;7.88;;
33864;SDS011;20159;51.072;13.526;2023-02-17T09:10:12;8.07;;;7.25;;
33864;SDS011;20159;51.072;13.526;2023-02-17T09:12:38;7.60;;;6.78;;
33864;SDS011;20159;51.072;13.526;2023-02-17T09:15:04;8.70;;;7.38;;
33864;SDS011;20159;51.072;13.526;2023-02-17T09:17:30;7.55;;;6.75;;
33864;SDS011;20159;51.072;13.526;2023-02-17T09:19:56;6.57;;;5.97;;
33864;SDS011;20159;51.072;13.526;2023-02-17T09:22:21;7.47;;;6.47;;
33864;SDS011;20159;51.072;13.526;2023-02-17T09:24:47;7.50;;;6.45;;
33864;SDS011;20159;51.072;13.526;2023-02-17T09:27:12;6.57;;;5.88;;
33864;SDS011;20159;51.072;13.526;2023-02-17T09:29:38;6.38;;;5.72;;
33864;SDS011;20159;51.072;13.526;2023-02-17T09:32:07;6.32;;;5.70;;
33864;SDS011;20159;51.072;13.526;2023-02-17T09:34:37;6.55;;;5.80;;
33864;SDS011;20159;51.072;13.526;2023-02-17T09:37:03;6.00;;;4.93;;
33864;SDS011;20159;51.072;13.526;2023-02-17T09:39:34;6.22;;;5.63;;
33864;SDS011;20159;51.072;13.526;2023-02-17T09:41:59;5.70;;;5.05;;
33864;SDS011;20159;51.072;13.526;2023-02-17T09:44:26;6.38;;;5.10;;
33864;SDS011;20159;51.072;13.526;2023-02-17T09:47:14;5.30;;;4.78;;
33864;SDS011;20159;51.072;13.526;2023-02-17T09:49:44;5.15;;;4.65;;
33864;SDS011;20159;51.072;13.526;2023-02-17T09:55:24;4.72;;;4.30;;
33864;SDS011;20159;51.072;13.526;2023-02-17T10:00:24;4.53;;;4.13;;
33864;SDS011;20159;51.072;13.526;2023-02-17T10:05:37;5.03;;;4.43;;
33864;SDS011;20159;51.072;13.526;2023-02-17T10:08:18;4.93;;;4.43;;
33864;SDS011;20159;51.072;13.526;2023-02-17T10:10:49;5.68;;;4.65;;
33864;SDS011;20159;51.072;13.526;2023-02-17T10:13:21;5.60;;;4.35;;
33864;SDS011;20159;51.072;13.526;2023-02-17T10:15:48;5.22;;;4.65;;
33864;SDS011;20159;51.072;13.526;2023-02-17T10:18:18;6.78;;;4.60;;
33864;SDS011;20159;51.072;13.526;2023-02-17T10:21:01;5.25;;;4.68;;
33864;SDS011;20159;51.072;13.526;2023-02-17T10:23:31;5.72;;;4.65;;
33864;SDS011;20159;51.072;13.526;2023-02-17T10:29:04;4.95;;;4.35;;
33864;SDS011;20159;51.072;13.526;2023-02-17T10:34:12;5.63;;;4.93;;
33864;SDS011;20159;51.072;13.526;2023-02-17T10:37:00;5.25;;;4.72;;
33864;SDS011;20159;51.072;13.526;2023-02-17T10:39:43;4.20;;;3.80;;
33864;SDS011;20159;51.072;13.526;2023-02-17T10:42:20;5.83;;;4.63;;
33864;SDS011;20159;51.072;13.526;2023-02-17T10:44:51;5.07;;;4.57;;
33864;SDS011;20159;51.072;13.526;2023-02-17T10:47:20;6.72;;;4.10;;
33864;SDS011;20159;51.072;13.526;2023-02-17T10:49:47;4.90;;;4.40;;
33864;SDS011;20159;51.072;13.526;2023-02-17T10:52:20;5.25;;;4.60;;
33864;SDS011;20159;51.072;13.526;2023-02-17T10:54:49;5.63;;;4.07;;
33864;SDS011;20159;51.072;13.526;2023-02-17T10:57:31;4.60;;;3.88;;
33864;SDS011;20159;51.072;13.526;2023-02-17T11:00:00;4.53;;;3.92;;
33864;SDS011;20159;51.072;13.526;2023-02-17T11:02:34;5.55;;;4.50;;
33864;SDS011;20159;51.072;13.526;2023-02-17T11:05:03;5.03;;;4.28;;
33864;SDS011;20159;51.072;13.526;2023-02-17T11:07:31;5.55;;;4.20;;
33864;SDS011;20159;51.072;13.526;2023-02-17T11:10:00;6.88;;;4.32;;
33864;SDS011;20159;51.072;13.526;2023-02-17T11:12:40;4.38;;;3.97;;
33864;SDS011;20159;51.072;13.526;2023-02-17T11:15:13;5.50;;;4.60;;
33864;SDS011;20159;51.072;13.526;2023-02-17T11:17:44;4.93;;;3.83;;
33864;SDS011;20159;51.072;13.526;2023-02-17T11:22:44;5.72;;;3.75;;
33864;SDS011;20159;51.072;13.526;2023-02-17T11:27:58;5.20;;;4.03;;
33864;SDS011;20159;51.072;13.526;2023-02-17T11:30:26;4.63;;;4.13;;
33864;SDS011;20159;51.072;13.526;2023-02-17T11:32:53;5.57;;;4.03;;
33864;SDS011;20159;51.072;13.526;2023-02-17T11:38:00;4.15;;;3.75;;
33864;SDS011;20159;51.072;13.526;2023-02-17T11:40:34;4.05;;;3.63;;
33864;SDS011;20159;51.072;13.526;2023-02-17T11:43:00;5.40;;;4.05;;
33864;SDS011;20159;51.072;13.526;2023-02-17T11:45:28;5.25;;;4.10;;
33864;SDS011;20159;51.072;13.526;2023-02-17T11:48:28;5.80;;;4.15;;
33864;SDS011;20159;51.072;13.526;2023-02-17T11:51:09;5.18;;;3.95;;
33864;SDS011;20159;51.072;13.526;2023-02-17T11:56:46;5.68;;;3.70;;
33864;SDS011;20159;51.072;13.526;2023-02-17T11:59:27;4.95;;;3.80;;
33864;SDS011;20159;51.072;13.526;2023-02-17T12:02:16;4.05;;;3.65;;
33864;SDS011;20159;51.072;13.526;2023-02-17T12:22:01;4.03;;;3.10;;
33864;SDS011;20159;51.072;13.526;2023-02-17T12:30:17;4.30;;;2.90;;
33864;SDS011;20159;51.072;13.526;2023-02-17T12:38:32;3.55;;;3.15;;
33864;SDS011;20159;51.072;13.526;2023-02-17T12:41:12;4.03;;;3.40;;
33864;SDS011;20159;51.072;13.526;2023-02-17T12:43:47;9.30;;;7.20;;
33864;SDS011;20159;51.072;13.526;2023-02-17T12:46:20;5.90;;;3.97;;
33864;SDS011;20159;51.072;13.526;2023-02-17T12:48:54;4.60;;;3.38;;
33864;SDS011;20159;51.072;13.526;2023-02-17T12:51:29;8.18;;;4.00;;
33864;SDS011;20159;51.072;13.526;2023-02-17T12:54:06;4.00;;;3.53;;
33864;SDS011;20159;51.072;13.526;2023-02-17T12:56:47;4.05;;;3.25;;
33864;SDS011;20159;51.072;13.526;2023-02-17T12:59:21;4.75;;;3.17;;
33864;SDS011;20159;51.072;13.526;2023-02-17T13:01:53;3.53;;;3.08;;
33864;SDS011;20159;51.072;13.526;2023-02-17T13:04:22;3.60;;;3.03;;
33864;SDS011;20159;51.072;13.526;2023-02-17T13:06:51;4.85;;;3.42;;
33864;SDS011;20159;51.072;13.526;2023-02-17T13:09:26;4.07;;;2.90;;
33864;SDS011;20159;51.072;13.526;2023-02-17T13:15:03;3.90;;;3.45;;
33864;SDS011;20159;51.072;13.526;2023-02-17T13:22:43;4.05;;;2.80;;
33864;SDS011;20159;51.072;13.526;2023-02-17T13:25:10;2.92;;;2.63;;
33864;SDS011;20159;51.072;13.526;2023-02-17T13:27:38;3.55;;;3.00;;
33864;SDS011;20159;51.072;13.526;2023-02-17T13:30:23;3.42;;;2.58;;
33864;SDS011;20159;51.072;13.526;2023-02-17T13:35:44;2.63;;;2.22;;
33864;SDS011;20159;51.072;13.526;2023-02-17T13:38:09;3.20;;;2.35;;
33864;SDS011;20159;51.072;13.526;2023-02-17T13:40:40;2.70;;;2.05;;
33864;SDS011;20159;51.072;13.526;2023-02-17T13:43:08;2.33;;;1.95;;
33864;SDS011;20159;51.072;13.526;2023-02-17T13:45:42;2.95;;;2.35;;
33864;SDS011;20159;51.072;13.526;2023-02-17T13:48:12;2.20;;;1.95;;
33864;SDS011;20159;51.072;13.526;2023-02-17T13:53:28;2.45;;;2.03;;
33864;SDS011;20159;51.072;13.526;2023-02-17T13:56:00;6.22;;;4.88;;
33864;SDS011;20159;51.072;13.526;2023-02-17T13:58:46;3.22;;;2.45;;
33864;SDS011;20159;51.072;13.526;2023-02-17T14:01:16;3.35;;;1.88;;
33864;SDS011;20159;51.072;13.526;2023-02-17T14:06:17;4.45;;;2.20;;
33864;SDS011;20159;51.072;13.526;2023-02-17T14:08:59;1.83;;;1.67;;
33864;SDS011;20159;51.072;13.526;2023-02-17T14:11:58;2.05;;;1.77;;
33864;SDS011;20159;51.072;13.526;2023-02-17T14:14:30;2.50;;;1.73;;
33864;SDS011;20159;51.072;13.526;2023-02-17T14:16:59;3.15;;;1.88;;
33864;SDS011;20159;51.072;13.526;2023-02-17T14:19:45;2.60;;;1.77;;
33864;SDS011;20159;51.072;13.526;2023-02-17T14:22:23;3.28;;;1.80;;
33864;SDS011;20159;51.072;13.526;2023-02-17T14:24:57;4.13;;;1.48;;
33864;SDS011;20159;51.072;13.526;2023-02-17T14:27:38;1.88;;;1.45;;
33864;SDS011;20159;51.072;13.526;2023-02-17T14:30:05;1.67;;;1.55;;
33864;SDS011;20159;51.072;13.526;2023-02-17T14:32:35;1.80;;;1.50;;
33864;SDS011;20159;51.072;13.526;2023-02-17T14:35:06;2.13;;;1.88;;
33864;SDS011;20159;51.072;13.526;2023-02-17T14:37:33;3.05;;;1.90;;
33864;SDS011;20159;51.072;13.526;2023-02-17T14:40:01;2.85;;;2.00;;
33864;SDS011;20159;51.072;13.526;2023-02-17T14:42:28;2.10;;;1.45;;
33864;SDS011;20159;51.072;13.526;2023-02-17T14:44:53;2.17;;;1.70;;
33864;SDS011;20159;51.072;13.526;2023-02-17T14:47:19;2.10;;;1.60;;
33864;SDS011;20159;51.072;13.526;2023-02-17T14:49:44;2.03;;;1.70;;
33864;SDS011;20159;51.072;13.526;2023-02-17T14:52:19;3.03;;;1.90;;
33864;SDS011;20159;51.072;13.526;2023-02-17T14:54:47;2.10;;;1.70;;
33864;SDS011;20159;51.072;13.526;2023-02-17T14:57:13;2.08;;;1.63;;
33864;SDS011;20159;51.072;13.526;2023-02-17T14:59:42;2.13;;;1.77;;
33864;SDS011;20159;51.072;13.526;2023-02-17T15:02:12;2.00;;;1.60;;
33864;SDS011;20159;51.072;13.526;2023-02-17T15:04:39;3.75;;;1.90;;
33864;SDS011;20159;51.072;13.526;2023-02-17T15:07:07;2.67;;;1.77;;
33864;SDS011;20159;51.072;13.526;2023-02-17T15:09:35;2.72;;;1.80;;
33864;SDS011;20159;51.072;13.526;2023-02-17T15:12:01;1.63;;;1.52;;
33864;SDS011;20159;51.072;13.526;2023-02-17T15:14:26;2.20;;;1.55;;
33864;SDS011;20159;51.072;13.526;2023-02-17T15:16:52;2.10;;;1.67;;
33864;SDS011;20159;51.072;13.526;2023-02-17T15:19:17;1.90;;;1.70;;
33864;SDS011;20159;51.072;13.526;2023-02-17T15:21:45;2.63;;;1.92;;
33864;SDS011;20159;51.072;13.526;2023-02-17T15:24:20;2.60;;;1.73;;
33864;SDS011;20159;51.072;13.526;2023-02-17T15:26:48;2.17;;;1.95;;
33864;SDS011;20159;51.072;13.526;2023-02-17T15:29:18;2.80;;;2.00;;
33864;SDS011;20159;51.072;13.526;2023-02-17T15:31:45;3.55;;;2.08;;
33864;SDS011;20159;51.072;13.526;2023-02-17T15:34:12;2.00;;;1.42;;
33864;SDS011;20159;51.072;13.526;2023-02-17T15:36:43;2.22;;;1.80;;
33864;SDS011;20159;51.072;13.526;2023-02-17T15:39:12;3.65;;;3.15;;
33864;SDS011;20159;51.072;13.526;2023-02-17T15:41:39;7.30;;;5.85;;
33864;SDS011;20159;51.072;13.526;2023-02-17T15:44:11;3.25;;;2.65;;
33864;SDS011;20159;51.072;13.526;2023-02-17T15:46:40;2.30;;;1.90;;
33864;SDS011;20159;51.072;13.526;2023-02-17T15:49:08;2.10;;;1.90;;
33864;SDS011;20159;51.072;13.526;2023-02-17T15:51:35;2.45;;;1.80;;
33864;SDS011;20159;51.072;13.526;2023-02-17T15:54:01;2.80;;;1.80;;
33864;SDS011;20159;51.072;13.526;2023-02-17T15:56:29;2.22;;;1.90;;
33864;SDS011;20159;51.072;13.526;2023-02-17T15:58:57;2.75;;;1.90;;